Time;durP1;ratioP1;P1;durP2;ratioP2;P2;SDS_P1;SDS_P2;PMS_P1;PMS_P2;Temp;Humidity;BMP_temperature;BMP_pressure;BME280_temperature;BME280_humidity;BME280_pressure;Samples;Min_cycle;Max_cycle;Signal;HPM_P1;HPM_P2
2024/02/24 00:03:54;;;;;;;1.10;1.10;;;8.10;38.80;;;;;;10436789;28;20235;-75
2024/02/24 00:08:58;;;;;;;1.40;1.30;;;8.00;39.00;;;;;;10444334;28;20327;-75
2024/02/24 00:14:01;;;;;;;2.90;1.90;;;8.00;39.30;;;;;;10443043;28;20316;-75
2024/02/24 00:19:05;;;;;;;3.50;2.10;;;8.00;39.30;;;;;;10440783;28;20221;-75
2024/02/24 00:24:10;;;;;;;1.90;1.80;;;8.00;39.30;;;;;;10438068;28;20363;-75
2024/02/24 00:29:13;;;;;;;1.73;1.63;;;8.00;39.30;;;;;;10441799;28;20245;-75
2024/02/24 00:34:16;;;;;;;2.00;1.57;;;8.00;39.30;;;;;;10443183;28;20739;-75
2024/02/24 00:39:21;;;;;;;2.23;1.60;;;8.00;39.20;;;;;;10438130;28;20257;-75
2024/02/24 00:44:24;;;;;;;1.70;1.53;;;8.00;39.30;;;;;;10443862;28;20312;-75
2024/02/24 00:49:28;;;;;;;1.77;1.67;;;8.00;39.30;;;;;;10442089;28;20600;-75
2024/02/24 00:54:33;;;;;;;5.37;2.47;;;8.00;39.30;;;;;;10446643;28;20232;-75
2024/02/24 00:59:36;;;;;;;3.53;2.27;;;8.00;38.90;;;;;;10441800;28;20221;-75
2024/02/24 01:04:39;;;;;;;7.87;3.17;;;7.90;38.70;;;;;;10439792;28;20222;-75
2024/02/24 01:09:44;;;;;;;4.00;2.63;;;7.90;38.80;;;;;;10441284;28;20596;-75
2024/02/24 01:14:47;;;;;;;3.23;2.03;;;7.80;39.10;;;;;;10442641;28;20259;-75
2024/02/24 01:19:51;;;;;;;2.40;2.07;;;7.90;39.20;;;;;;10437379;28;20228;-75
2024/02/24 01:24:55;;;;;;;3.90;1.90;;;7.80;39.10;;;;;;10440707;28;20316;-75
2024/02/24 01:29:58;;;;;;;1.90;1.70;;;7.70;38.80;;;;;;10442047;28;20244;-75
2024/02/24 01:35:02;;;;;;;1.83;1.70;;;7.60;38.80;;;;;;10440008;28;20220;-75
2024/02/24 01:40:08;;;;;;;2.27;1.60;;;7.50;38.80;;;;;;10439037;28;20324;-75
2024/02/24 01:45:12;;;;;;;1.50;1.40;;;7.30;38.70;;;;;;10437905;28;20248;-75
2024/02/24 01:50:16;;;;;;;1.37;1.20;;;7.20;38.60;;;;;;10442528;28;20788;-75
2024/02/24 01:55:20;;;;;;;1.30;1.30;;;7.20;38.90;;;;;;10440903;28;20226;-75
2024/02/24 02:00:23;;;;;;;1.23;1.23;;;7.10;39.20;;;;;;10438910;28;20229;-75
2024/02/24 02:05:27;;;;;;;1.60;1.50;;;7.20;39.20;;;;;;10434644;28;20278;-75
2024/02/24 02:10:45;;;;;;;1.67;1.57;;;7.20;39.00;;;;;;10439551;28;20241;-75
2024/02/24 02:15:50;;;;;;;1.80;1.70;;;7.10;39.30;;;;;;10441123;28;20220;-75
2024/02/24 02:20:53;;;;;;;1.77;1.67;;;7.00;39.20;;;;;;10440400;28;20239;-75
2024/02/24 02:25:58;;;;;;;1.60;1.50;;;6.90;39.30;;;;;;10438461;28;20231;-75
2024/02/24 02:31:01;;;;;;;1.60;1.50;;;6.90;39.70;;;;;;10439706;28;20671;-75
2024/02/24 02:36:06;;;;;;;1.60;1.50;;;6.80;39.50;;;;;;10435580;28;20223;-75
2024/02/24 02:41:10;;;;;;;1.60;1.50;;;6.90;39.40;;;;;;10438367;28;20225;-75
2024/02/24 02:46:13;;;;;;;1.70;1.60;;;6.90;39.30;;;;;;10437445;28;20298;-75
2024/02/24 02:51:16;;;;;;;1.63;1.53;;;6.90;39.10;;;;;;10440592;28;20226;-77
2024/02/24 02:56:22;;;;;;;1.93;1.83;;;7.00;39.00;;;;;;10435516;28;20229;-75
2024/02/24 03:01:26;;;;;;;2.17;1.80;;;6.90;38.80;;;;;;10440015;28;20598;-75
2024/02/24 03:06:32;;;;;;;1.87;1.77;;;6.80;38.80;;;;;;10444317;28;20225;-75
2024/02/24 03:11:37;;;;;;;1.80;1.70;;;6.70;39.10;;;;;;10436764;28;20318;-75
2024/02/24 03:16:40;;;;;;;2.20;2.10;;;6.60;39.30;;;;;;10438758;28;20233;-75
2024/02/24 03:21:43;;;;;;;1.90;1.80;;;6.70;39.30;;;;;;10435822;28;20239;-75
2024/02/24 03:26:48;;;;;;;2.80;1.90;;;6.70;39.20;;;;;;10430710;28;20228;-75
2024/02/24 03:31:51;;;;;;;2.47;2.27;;;6.70;39.20;;;;;;10435177;28;20252;-74
2024/02/24 03:36:55;;;;;;;1.80;1.70;;;6.70;38.90;;;;;;10435690;28;20229;-75
2024/02/24 03:42:00;;;;;;;2.37;2.17;;;6.70;39.00;;;;;;10447985;28;20225;-75
2024/02/24 03:47:03;;;;;;;2.30;2.20;;;6.70;39.00;;;;;;10446570;28;20275;-75
2024/02/24 03:52:07;;;;;;;2.30;2.20;;;6.70;38.80;;;;;;10444103;28;20229;-75
2024/02/24 03:57:11;;;;;;;2.13;2.03;;;6.50;38.80;;;;;;10444926;28;20229;-75
2024/02/24 04:02:15;;;;;;;3.40;2.40;;;6.30;39.10;;;;;;10446219;28;20229;-74
2024/02/24 04:07:18;;;;;;;2.10;2.00;;;6.30;39.20;;;;;;10446820;28;20271;-74
2024/02/24 04:12:23;;;;;;;3.20;2.43;;;6.30;39.30;;;;;;10438410;28;20217;-74
2024/02/24 04:17:26;;;;;;;2.67;2.47;;;6.30;39.90;;;;;;10444535;28;20229;-74
2024/02/24 04:22:29;;;;;;;3.50;3.20;;;6.30;39.10;;;;;;10447746;28;20636;-74
2024/02/24 04:27:34;;;;;;;2.90;2.70;;;6.20;38.90;;;;;;10448405;28;20719;-74
2024/02/24 04:32:37;;;;;;;2.70;2.50;;;6.20;39.20;;;;;;10446306;28;20240;-74
2024/02/24 04:37:41;;;;;;;3.07;2.87;;;6.10;39.20;;;;;;10444474;28;20316;-74
2024/02/24 04:42:45;;;;;;;2.47;2.27;;;6.20;39.30;;;;;;10447652;28;20240;-74
2024/02/24 04:47:49;;;;;;;2.77;2.57;;;6.20;39.30;;;;;;10440050;28;20229;-74
2024/02/24 04:52:53;;;;;;;2.77;2.57;;;6.20;39.30;;;;;;10447423;28;20241;-74
2024/02/24 04:57:57;;;;;;;3.00;2.80;;;6.20;39.00;;;;;;10444007;28;20632;-74
2024/02/24 05:03:00;;;;;;;2.97;2.77;;;6.20;38.80;;;;;;10446253;28;20738;-74
2024/02/24 05:08:05;;;;;;;2.83;2.63;;;6.20;38.50;;;;;;10444922;28;20231;-74
2024/02/24 05:13:09;;;;;;;2.93;2.73;;;6.10;38.60;;;;;;10446579;28;20225;-74
2024/02/24 05:18:13;;;;;;;2.43;2.33;;;5.90;38.80;;;;;;10443452;28;20228;-74
2024/02/24 05:23:16;;;;;;;2.80;2.60;;;5.80;38.70;;;;;;10443838;28;20225;-74
2024/02/24 05:28:20;;;;;;;3.73;2.63;;;5.70;38.60;;;;;;10442197;28;20233;-74
2024/02/24 05:33:24;;;;;;;4.70;2.67;;;5.60;38.80;;;;;;10444949;28;20221;-74
2024/02/24 05:38:27;;;;;;;3.10;2.90;;;5.50;39.00;;;;;;10437797;28;20279;-74
2024/02/24 05:43:32;;;;;;;2.93;2.73;;;5.40;39.40;;;;;;10444439;28;20237;-74
2024/02/24 05:48:35;;;;;;;3.07;2.87;;;5.30;39.60;;;;;;10441350;28;20237;-73
2024/02/24 05:53:39;;;;;;;2.83;2.63;;;5.40;39.60;;;;;;10440693;28;20233;-73
2024/02/24 05:58:44;;;;;;;3.17;2.97;;;5.40;39.50;;;;;;10444423;28;20239;-73
2024/02/24 06:03:51;;;;;;;3.60;3.30;;;5.50;39.60;;;;;;10436319;28;20265;-73
2024/02/24 06:08:54;;;;;;;3.00;2.80;;;5.50;39.30;;;;;;10443734;28;20848;-73
2024/02/24 06:13:59;;;;;;;4.20;3.80;;;5.40;39.20;;;;;;10438961;28;20597;-73
2024/02/24 06:19:02;;;;;;;3.80;3.50;;;5.30;39.60;;;;;;10440274;28;20320;-73
2024/02/24 06:24:06;;;;;;;3.60;3.30;;;5.20;39.70;;;;;;10441751;28;20784;-74
2024/02/24 06:29:11;;;;;;;3.80;3.50;;;5.30;39.80;;;;;;10435549;28;20283;-74
2024/02/24 06:34:15;;;;;;;3.73;3.43;;;5.30;39.80;;;;;;10431528;28;20231;-74
2024/02/24 06:39:18;;;;;;;3.67;3.37;;;5.40;39.50;;;;;;10440381;28;20544;-73
2024/02/24 06:44:23;;;;;;;4.40;4.07;;;5.40;39.30;;;;;;10440731;28;20237;-73
2024/02/24 06:49:26;;;;;;;4.93;4.53;;;5.40;39.60;;;;;;10439650;28;20236;-74
2024/02/24 06:54:30;;;;;;;5.57;5.07;;;5.40;39.50;;;;;;10439055;28;20248;-75
2024/02/24 06:59:34;;;;;;;5.67;5.17;;;5.30;39.70;;;;;;10440765;28;20229;-74
2024/02/24 07:04:37;;;;;;;5.23;4.80;;;5.10;39.80;;;;;;10438130;28;20233;-74
2024/02/24 07:09:41;;;;;;;6.27;5.77;;;5.40;40.20;;;;;;10433845;28;20639;-73
2024/02/24 07:14:46;;;;;;;5.83;5.33;;;5.40;40.20;;;;;;10442842;28;20256;-74
2024/02/24 07:19:49;;;;;;;6.07;4.80;;;5.50;40.40;;;;;;10440297;28;20343;-73
2024/02/24 07:24:53;;;;;;;5.47;4.97;;;5.50;40.40;;;;;;10441705;28;20232;-73
2024/02/24 07:30:00;;;;;;;9.60;8.60;;;5.60;40.50;;;;;;10441258;28;20744;-73
2024/02/24 07:35:04;;;;;;;8.47;7.57;;;5.70;40.80;;;;;;10441938;28;20244;-74
2024/02/24 07:40:08;;;;;;;3.87;3.57;;;5.80;41.00;;;;;;10439384;28;20884;-74
2024/02/24 07:45:13;;;;;;;3.80;3.50;;;5.90;41.20;;;;;;10444994;28;20229;-73
2024/02/24 07:50:17;;;;;;;3.20;2.90;;;6.00;41.50;;;;;;10446043;28;20228;-74
2024/02/24 07:55:20;;;;;;;3.27;2.97;;;6.10;41.60;;;;;;10445076;28;20229;-74
2024/02/24 08:00:26;;;;;;;3.40;3.10;;;6.20;41.40;;;;;;10445755;28;21345;-75
2024/02/24 08:05:29;;;;;;;3.43;3.13;;;6.30;41.60;;;;;;10439053;28;20272;-74
2024/02/24 08:10:33;;;;;;;2.70;2.50;;;6.40;41.40;;;;;;10441565;28;20229;-74
2024/02/24 08:15:37;;;;;;;3.63;2.47;;;6.50;41.30;;;;;;10443708;28;20231;-74
2024/02/24 08:20:40;;;;;;;2.90;2.70;;;6.60;41.30;;;;;;10443667;28;20611;-74
2024/02/24 08:25:44;;;;;;;2.90;2.70;;;6.70;41.20;;;;;;10445011;28;20237;-74
2024/02/24 08:30:48;;;;;;;2.17;2.07;;;6.70;41.10;;;;;;10444654;28;20235;-75
2024/02/24 08:35:52;;;;;;;2.50;2.30;;;6.70;41.50;;;;;;10438444;28;20226;-75
2024/02/24 08:40:56;;;;;;;2.07;1.97;;;6.70;42.10;;;;;;10445909;28;20232;-75
2024/02/24 08:46:02;;;;;;;2.27;2.13;;;6.90;41.90;;;;;;10441990;28;20308;-74
2024/02/24 08:51:06;;;;;;;3.63;3.33;;;7.10;41.80;;;;;;10440744;28;20239;-75
2024/02/24 08:56:10;;;;;;;3.50;2.30;;;7.20;41.60;;;;;;10426504;28;20236;-75
2024/02/24 09:01:16;;;;;;;2.50;2.30;;;7.40;41.80;;;;;;10434399;28;20312;-75
2024/02/24 09:06:19;;;;;;;2.60;2.40;;;7.60;41.80;;;;;;10434278;28;20256;-75
2024/02/24 09:11:23;;;;;;;2.23;2.10;;;7.80;42.20;;;;;;10427506;28;20236;-75
2024/02/24 09:16:27;;;;;;;2.20;2.00;;;8.00;42.00;;;;;;10434433;28;20224;-76
2024/02/24 09:21:31;;;;;;;2.17;2.00;;;8.40;42.30;;;;;;10415843;28;20233;-76
2024/02/24 09:26:35;;;;;;;3.33;2.10;;;8.70;42.10;;;;;;10429042;28;20347;-77
2024/02/24 09:31:41;;;;;;;2.33;2.13;;;9.00;42.30;;;;;;10406372;28;20224;-75
2024/02/24 09:36:44;;;;;;;2.60;2.17;;;9.40;41.90;;;;;;10415262;28;20842;-75
2024/02/24 09:41:47;;;;;;;1.50;1.40;;;9.70;41.90;;;;;;10411978;28;20258;-75
2024/02/24 09:46:52;;;;;;;1.50;1.30;;;10.10;40.20;;;;;;10431813;28;20225;-75
2024/02/24 09:51:56;;;;;;;1.47;1.37;;;10.50;39.60;;;;;;10420781;28;20227;-75
2024/02/24 09:56:59;;;;;;;1.10;1.10;;;10.70;39.10;;;;;;10420795;28;20233;-75
2024/02/24 10:02:04;;;;;;;1.47;1.20;;;10.80;38.60;;;;;;10427181;28;20702;-75
2024/02/24 10:07:08;;;;;;;1.47;1.30;;;10.90;38.30;;;;;;10428070;28;20240;-75
2024/02/24 10:12:11;;;;;;;1.20;1.10;;;11.10;39.20;;;;;;10423040;28;20228;-75
2024/02/24 10:17:16;;;;;;;1.60;1.20;;;11.30;38.70;;;;;;10424296;28;20930;-76
2024/02/24 10:22:20;;;;;;;2.00;1.33;;;11.40;37.50;;;;;;10435952;28;20784;-75
2024/02/24 10:27:23;;;;;;;1.70;1.10;;;11.50;38.00;;;;;;10439233;28;20646;-75
2024/02/24 10:32:28;;;;;;;1.20;1.10;;;11.60;37.70;;;;;;10438037;28;20235;-75
2024/02/24 10:37:32;;;;;;;1.20;1.07;;;11.70;36.90;;;;;;10434408;28;20620;-75
2024/02/24 10:42:57;;;;;;;1.30;1.20;;;11.80;37.50;;;;;;10433479;28;20217;-75
2024/02/24 10:48:02;;;;;;;1.40;1.30;;;11.90;37.40;;;;;;10439362;28;20225;-75
2024/02/24 10:53:09;;;;;;;1.77;1.10;;;12.00;36.90;;;;;;10439752;28;20213;-75
2024/02/24 10:58:19;;;;;;;2.00;1.80;;;12.10;36.80;;;;;;10437798;28;20638;-75
2024/02/24 11:03:24;;;;;;;1.17;1.00;;;12.10;35.70;;;;;;10437521;28;20664;-75
2024/02/24 11:08:38;;;;;;;1.47;1.30;;;12.20;36.10;;;;;;10436010;28;20723;-75
2024/02/24 11:13:46;;;;;;;1.27;1.00;;;12.10;35.30;;;;;;10439464;28;20256;-75
2024/02/24 11:19:10;;;;;;;0.90;0.90;;;12.10;36.10;;;;;;10436424;28;20221;-75
2024/02/24 11:24:19;;;;;;;2.00;0.80;;;12.10;36.10;;;;;;10436876;28;20233;-77
2024/02/24 11:29:26;;;;;;;0.90;0.90;;;12.10;35.30;;;;;;10436404;28;20225;-74
2024/02/24 11:34:33;;;;;;;1.20;1.00;;;12.10;34.70;;;;;;10430722;28;20891;-75
2024/02/24 11:39:40;;;;;;;1.33;1.20;;;12.10;35.50;;;;;;10437956;28;20367;-76
2024/02/24 11:44:48;;;;;;;1.03;0.93;;;12.20;36.30;;;;;;10436554;28;20265;-75
2024/02/24 11:49:55;;;;;;;1.13;0.83;;;12.30;35.60;;;;;;10439336;28;20235;-76
2024/02/24 11:54:58;;;;;;;0.80;0.80;;;12.50;35.00;;;;;;10436708;28;20280;-75
2024/02/24 12:00:01;;;;;;;0.90;0.90;;;12.60;34.20;;;;;;10440684;28;20235;-75
2024/02/24 12:05:15;;;;;;;1.43;1.00;;;12.60;34.60;;;;;;10444766;28;20243;-75
2024/02/24 12:10:19;;;;;;;1.07;0.90;;;12.60;32.40;;;;;;10442079;28;20244;-75
2024/02/24 12:15:22;;;;;;;0.80;0.80;;;12.60;34.70;;;;;;10441931;28;21268;-76
2024/02/24 12:20:27;;;;;;;0.80;0.80;;;12.70;34.50;;;;;;10441313;28;20228;-75
2024/02/24 12:25:31;;;;;;;0.77;0.77;;;12.80;34.20;;;;;;10445447;28;20295;-75
2024/02/24 12:30:37;;;;;;;1.50;1.20;;;12.80;34.40;;;;;;10443470;28;20233;-75
2024/02/24 12:35:41;;;;;;;1.00;1.00;;;12.90;34.40;;;;;;10443815;28;20225;-75
2024/02/24 12:40:45;;;;;;;0.97;0.97;;;13.00;34.20;;;;;;10442961;28;20237;-76
2024/02/24 12:45:49;;;;;;;0.90;0.80;;;13.10;34.70;;;;;;10442056;28;20762;-76
2024/02/24 12:50:54;;;;;;;0.70;0.70;;;13.20;34.30;;;;;;10437783;28;20278;-75
2024/02/24 12:55:59;;;;;;;10.37;8.80;;;13.20;32.80;;;;;;10432559;28;20225;-75
2024/02/24 13:01:03;;;;;;;1.67;1.57;;;13.20;33.70;;;;;;10434570;28;20253;-74
2024/02/24 13:06:09;;;;;;;0.93;0.93;;;13.20;33.70;;;;;;10430369;28;20319;-75
2024/02/24 13:11:12;;;;;;;1.17;0.97;;;13.20;33.00;;;;;;10420226;28;20229;-75
2024/02/24 13:16:16;;;;;;;1.60;1.50;;;13.20;33.50;;;;;;10429517;28;20334;-75
2024/02/24 13:21:20;;;;;;;1.20;1.10;;;13.20;33.80;;;;;;10430586;28;20779;-75
2024/02/24 13:26:23;;;;;;;0.87;0.87;;;13.20;32.70;;;;;;10432389;28;20226;-76
2024/02/24 13:31:27;;;;;;;0.90;0.90;;;13.20;33.20;;;;;;10441813;28;20233;-77
2024/02/24 13:36:33;;;;;;;1.07;0.70;;;13.20;33.30;;;;;;10442930;28;20239;-77
2024/02/24 13:41:37;;;;;;;0.60;0.60;;;13.10;32.30;;;;;;10441980;28;20261;-77
2024/02/24 13:46:42;;;;;;;0.90;0.70;;;13.10;33.40;;;;;;10436956;28;20256;-78
2024/02/24 13:51:47;;;;;;;1.87;0.70;;;13.10;32.30;;;;;;10434995;28;20220;-77
2024/02/24 13:56:50;;;;;;;0.90;0.90;;;13.20;32.20;;;;;;10433696;28;20256;-76
2024/02/24 14:01:53;;;;;;;0.70;0.70;;;13.20;32.60;;;;;;10431154;28;20217;-76
2024/02/24 14:06:58;;;;;;;1.73;0.80;;;13.20;32.80;;;;;;10430878;28;20233;-76
2024/02/24 14:12:02;;;;;;;0.80;0.80;;;13.20;32.00;;;;;;10431928;28;20259;-76
2024/02/24 14:17:05;;;;;;;1.50;1.03;;;13.20;32.60;;;;;;10435577;28;20243;-75
2024/02/24 14:22:13;;;;;;;1.80;1.60;;;13.10;32.00;;;;;;10438490;28;20216;-76
2024/02/24 14:27:16;;;;;;;0.80;0.80;;;13.10;31.50;;;;;;10432257;28;20280;-77
2024/02/24 14:32:19;;;;;;;0.73;0.73;;;13.10;32.10;;;;;;10435242;28;20598;-76
2024/02/24 14:37:23;;;;;;;1.07;0.93;;;13.10;31.90;;;;;;10443341;28;20249;-77
2024/02/24 14:42:27;;;;;;;0.90;0.90;;;13.20;31.10;;;;;;10439184;28;20227;-77
2024/02/24 14:47:30;;;;;;;3.97;0.90;;;13.20;31.50;;;;;;10437223;28;20608;-76
2024/02/24 14:52:37;;;;;;;1.50;1.23;;;13.10;31.60;;;;;;10431167;28;20320;-76
2024/02/24 14:57:41;;;;;;;4.37;3.80;;;13.10;31.10;;;;;;10437158;28;20237;-77
2024/02/24 15:02:44;;;;;;;1.30;1.20;;;13.10;31.50;;;;;;10435308;28;20229;-77
2024/02/24 15:08:08;;;;;;;1.13;1.03;;;13.00;31.30;;;;;;10434222;28;20229;-76
2024/02/24 15:13:15;;;;;;;2.77;2.57;;;13.00;30.90;;;;;;10437137;28;20244;-77
2024/02/24 15:18:24;;;;;;;2.20;1.63;;;12.90;31.20;;;;;;10434019;28;20229;-76
2024/02/24 15:23:29;;;;;;;5.83;3.73;;;13.00;31.70;;;;;;10428087;28;20306;-76
2024/02/24 15:28:33;;;;;;;3.50;2.53;;;12.90;31.10;;;;;;10430730;28;20696;-76
2024/02/24 15:33:37;;;;;;;6.30;5.50;;;12.90;31.60;;;;;;10431643;28;20227;-75
2024/02/24 15:38:42;;;;;;;5.53;5.03;;;12.80;31.40;;;;;;10441127;28;20263;-75
2024/02/24 15:43:45;;;;;;;3.17;2.13;;;12.80;31.50;;;;;;10439935;28;20226;-76
2024/02/24 15:48:48;;;;;;;1.60;1.50;;;12.70;31.90;;;;;;10441781;28;20222;-77
2024/02/24 15:53:53;;;;;;;1.20;1.10;;;12.70;31.90;;;;;;10443283;28;20251;-76
2024/02/24 15:58:56;;;;;;;0.83;0.80;;;12.70;31.50;;;;;;10435685;28;20764;-76
2024/02/24 16:04:00;;;;;;;0.87;0.87;;;12.70;31.70;;;;;;10443630;28;20214;-75
2024/02/24 16:09:06;;;;;;;1.10;1.10;;;12.60;31.70;;;;;;10443058;28;20229;-75
2024/02/24 16:14:10;;;;;;;1.30;1.20;;;12.60;31.40;;;;;;10442428;28;20243;-76
2024/02/24 16:19:14;;;;;;;1.40;1.30;;;12.50;31.80;;;;;;10443634;28;20875;-76
2024/02/24 16:24:21;;;;;;;3.83;2.03;;;12.50;31.60;;;;;;10440167;28;20228;-77
2024/02/24 16:29:25;;;;;;;12.67;8.07;;;12.50;35.30;;;;;;10438867;28;20665;-75
2024/02/24 16:34:28;;;;;;;11.77;7.10;;;12.60;33.30;;;;;;10442790;28;20221;-75
2024/02/24 16:39:33;;;;;;;10.20;6.80;;;12.70;33.60;;;;;;10436785;28;20228;-77
2024/02/24 16:44:36;;;;;;;11.40;6.80;;;12.80;33.00;;;;;;10431037;28;20311;-77
2024/02/24 16:49:39;;;;;;;7.67;5.10;;;12.90;33.10;;;;;;10434984;28;20231;-77
2024/02/24 16:54:44;;;;;;;4.40;3.40;;;12.90;32.90;;;;;;10437152;28;20225;-77
2024/02/24 16:59:47;;;;;;;3.57;3.27;;;12.90;32.60;;;;;;10441458;28;20315;-77
2024/02/24 17:04:54;;;;;;;3.37;3.07;;;12.90;32.70;;;;;;10436546;28;20711;-77
2024/02/24 17:09:58;;;;;;;2.97;2.67;;;12.80;32.60;;;;;;10447099;28;20229;-77
2024/02/24 17:15:03;;;;;;;3.67;3.27;;;12.80;32.60;;;;;;10446070;28;20225;-77
2024/02/24 17:20:08;;;;;;;7.57;5.60;;;12.70;32.60;;;;;;10447784;28;20225;-77
2024/02/24 17:25:12;;;;;;;6.83;5.77;;;12.60;32.60;;;;;;10446607;28;20228;-77
2024/02/24 17:30:17;;;;;;;7.73;4.33;;;12.50;32.50;;;;;;10439089;28;20229;-76
2024/02/24 17:35:20;;;;;;;7.30;4.33;;;12.40;32.60;;;;;;10445196;28;20224;-76
2024/02/24 17:40:25;;;;;;;6.83;4.30;;;12.40;32.60;;;;;;10446250;28;20319;-77
2024/02/24 17:45:28;;;;;;;9.17;6.60;;;12.20;32.30;;;;;;10442201;28;20228;-77
2024/02/24 17:50:31;;;;;;;14.63;10.03;;;12.10;32.50;;;;;;10446942;28;20316;-77
2024/02/24 17:55:36;;;;;;;10.67;7.33;;;12.10;32.60;;;;;;10447568;28;20593;-77
2024/02/24 18:00:40;;;;;;;11.60;7.53;;;12.00;32.50;;;;;;10437676;28;20248;-77
2024/02/24 18:05:43;;;;;;;8.97;6.30;;;11.90;32.60;;;;;;10447100;28;20236;-77
2024/02/24 18:10:48;;;;;;;9.63;5.90;;;11.80;32.80;;;;;;10448007;28;20244;-76
2024/02/24 18:15:51;;;;;;;5.23;4.37;;;11.70;33.00;;;;;;10448158;28;20307;-77
2024/02/24 18:20:55;;;;;;;5.70;4.93;;;11.70;32.70;;;;;;10442940;28;20229;-77
2024/02/24 18:26:00;;;;;;;7.27;5.13;;;11.50;32.60;;;;;;10447239;28;20363;-77
2024/02/24 18:31:03;;;;;;;6.47;4.53;;;11.30;32.60;;;;;;10446458;28;20313;-76
2024/02/24 18:36:07;;;;;;;5.63;4.47;;;11.20;32.70;;;;;;10442357;28;20758;-76
2024/02/24 18:41:12;;;;;;;5.17;4.50;;;11.00;32.90;;;;;;10446870;28;20229;-76
2024/02/24 18:46:15;;;;;;;5.10;4.60;;;11.00;33.20;;;;;;10446434;28;20316;-76
2024/02/24 18:51:20;;;;;;;6.07;5.43;;;10.90;33.40;;;;;;10446506;28;20260;-76
2024/02/24 18:56:26;;;;;;;4.80;4.33;;;10.90;33.40;;;;;;10443958;28;20255;-77
2024/02/24 19:01:29;;;;;;;6.63;5.93;;;10.80;33.10;;;;;;10443154;28;20230;-77
2024/02/24 19:06:33;;;;;;;9.97;8.93;;;10.70;33.10;;;;;;10441142;28;20723;-77
2024/02/24 19:11:38;;;;;;;9.40;7.80;;;10.50;33.10;;;;;;10456768;28;20802;-77
2024/02/24 19:16:41;;;;;;;8.57;7.67;;;10.40;33.50;;;;;;10459384;28;20656;-77
2024/02/24 19:21:45;;;;;;;9.47;8.47;;;10.20;33.70;;;;;;10459485;28;20233;-77
2024/02/24 19:26:50;;;;;;;10.67;9.57;;;10.20;34.00;;;;;;10459169;28;20225;-77
2024/02/24 19:31:54;;;;;;;9.57;8.57;;;10.20;34.10;;;;;;10453977;28;20246;-77
2024/02/24 19:36:57;;;;;;;12.50;9.70;;;10.20;34.10;;;;;;10455696;28;20715;-75
2024/02/24 19:42:02;;;;;;;11.20;9.57;;;10.20;34.00;;;;;;10448022;28;21060;-77
2024/02/24 19:47:09;;;;;;;22.30;14.60;;;10.20;34.00;;;;;;10448717;28;20221;-77
2024/02/24 19:52:14;;;;;;;18.53;13.07;;;10.20;33.90;;;;;;10444432;28;20225;-77
2024/02/24 19:57:20;;;;;;;21.20;15.33;;;10.20;33.90;;;;;;10448053;28;20231;-77
2024/02/24 20:02:23;;;;;;;16.03;12.20;;;10.10;34.00;;;;;;10450029;28;20312;-76
2024/02/24 20:07:26;;;;;;;11.53;9.80;;;10.10;34.00;;;;;;10451552;28;20233;-76
2024/02/24 20:12:32;;;;;;;12.80;11.00;;;10.10;34.00;;;;;;10452052;28;20776;-75
2024/02/24 20:17:35;;;;;;;10.47;9.37;;;10.10;34.00;;;;;;10452426;28;20325;-76
2024/02/24 20:22:39;;;;;;;9.47;7.70;;;10.00;34.60;;;;;;10450650;28;20727;-75
2024/02/24 20:27:44;;;;;;;8.63;7.83;;;9.90;34.80;;;;;;10447006;28;20707;-76
2024/02/24 20:32:51;;;;;;;9.03;7.60;;;9.80;35.20;;;;;;10446041;28;20232;-76
2024/02/24 20:37:55;;;;;;;9.23;7.47;;;9.70;35.20;;;;;;10445268;28;20252;-75
2024/02/24 20:42:59;;;;;;;8.83;7.93;;;9.70;35.30;;;;;;10447904;28;20699;-75
2024/02/24 20:48:02;;;;;;;12.27;8.50;;;9.70;35.40;;;;;;10445570;28;20225;-76
2024/02/24 20:53:06;;;;;;;8.37;6.90;;;9.80;35.40;;;;;;10444246;28;20213;-76
2024/02/24 20:58:10;;;;;;;7.27;6.13;;;9.80;35.40;;;;;;10448056;28;20225;-75
2024/02/24 21:03:13;;;;;;;10.87;8.57;;;9.70;35.60;;;;;;10447858;28;20245;-75
2024/02/24 21:08:17;;;;;;;11.17;8.70;;;9.70;35.40;;;;;;10448171;28;20283;-76
2024/02/24 21:13:22;;;;;;;10.37;9.20;;;9.70;35.40;;;;;;10448352;28;20233;-76
2024/02/24 21:18:26;;;;;;;10.53;8.60;;;9.70;35.50;;;;;;10439309;28;20723;-76
2024/02/24 21:23:29;;;;;;;10.07;8.50;;;9.60;35.30;;;;;;10447733;28;20231;-75
2024/02/24 21:28:34;;;;;;;8.47;7.00;;;9.40;35.40;;;;;;10442867;28;20237;-76
2024/02/24 21:33:37;;;;;;;7.70;6.90;;;9.30;35.80;;;;;;10444408;28;20267;-76
2024/02/24 21:38:41;;;;;;;7.17;6.47;;;9.30;35.90;;;;;;10447453;28;20240;-75
2024/02/24 21:43:46;;;;;;;6.70;6.10;;;9.20;36.00;;;;;;10441225;28;20852;-75
2024/02/24 21:48:49;;;;;;;7.90;7.10;;;9.30;36.20;;;;;;10442882;28;20232;-75
2024/02/24 21:53:53;;;;;;;7.33;6.63;;;9.20;36.00;;;;;;10436163;28;20707;-75
2024/02/24 21:58:57;;;;;;;7.17;6.30;;;9.10;36.10;;;;;;10440716;28;20229;-75
2024/02/24 22:04:03;;;;;;;6.57;5.83;;;9.00;36.30;;;;;;10434152;28;20224;-75
2024/02/24 22:09:06;;;;;;;6.73;5.27;;;8.90;36.40;;;;;;10441599;28;20231;-76
2024/02/24 22:14:18;;;;;;;5.83;5.23;;;8.70;36.40;;;;;;10440659;28;20217;-76
2024/02/24 22:19:22;;;;;;;6.37;5.53;;;8.70;36.80;;;;;;10442076;28;20791;-76
2024/02/24 22:24:26;;;;;;;5.50;4.77;;;8.60;36.80;;;;;;10440037;28;20263;-75
2024/02/24 22:29:30;;;;;;;6.10;4.80;;;8.50;36.80;;;;;;10439784;28;20251;-76
2024/02/24 22:34:33;;;;;;;6.40;5.13;;;8.40;37.20;;;;;;10441509;28;21079;-76
2024/02/24 22:39:37;;;;;;;5.10;4.53;;;8.40;37.20;;;;;;10444345;28;20237;-76
2024/02/24 22:44:44;;;;;;;6.33;4.43;;;8.40;37.20;;;;;;10444343;28;20771;-75
2024/02/24 22:49:47;;;;;;;6.00;5.30;;;8.40;37.70;;;;;;10442412;28;20233;-76
2024/02/24 22:54:50;;;;;;;5.00;4.50;;;8.50;37.30;;;;;;10440549;28;20228;-76
2024/02/24 22:59:56;;;;;;;5.30;4.60;;;8.50;37.40;;;;;;10443793;28;20311;-76
2024/02/24 23:04:59;;;;;;;6.13;5.10;;;8.50;37.70;;;;;;10443696;28;20229;-76
2024/02/24 23:10:03;;;;;;;5.97;5.33;;;8.60;37.50;;;;;;10434511;28;20966;-76
2024/02/24 23:15:09;;;;;;;6.57;5.30;;;8.70;37.60;;;;;;10444826;28;20940;-76
2024/02/24 23:20:12;;;;;;;5.70;4.73;;;8.80;37.70;;;;;;10438685;28;20221;-76
2024/02/24 23:25:18;;;;;;;7.37;5.37;;;8.80;37.20;;;;;;10442675;28;20221;-76
2024/02/24 23:30:22;;;;;;;6.23;5.10;;;8.90;37.90;;;;;;10443398;28;20229;-75
2024/02/24 23:35:25;;;;;;;6.40;5.33;;;8.90;37.30;;;;;;10442152;28;20296;-75
2024/02/24 23:40:29;;;;;;;9.33;7.10;;;9.00;37.30;;;;;;10444514;28;20304;-76
2024/02/24 23:45:33;;;;;;;9.03;6.23;;;9.00;37.20;;;;;;10443703;28;20239;-75
2024/02/24 23:50:37;;;;;;;6.50;5.87;;;8.90;37.10;;;;;;10442268;28;20253;-76
2024/02/24 23:55:40;;;;;;;6.30;5.70;;;8.90;37.20;;;;;;10447883;28;20256;-75
